»·PEaware :: FFT235 KSNA-KLAS

FFT235 :: KSNA-KLAS

FLIGHT INFORMATION

Flight Status: Arrived
Operator:
Frontier Airlines
More flights by this operator :: More flights under this callsign
Pilot: Josh T. (20631)
Aircraft: AIRBUS A320
(A320)
More flights by this aircraft type
Origin: KSNA John Wayne-Orange Co
United States
Destination: KLAS McCarran Intl
United States
More flights between these airports :: More routes between these airports
Route: FINZZ2 MISEN KEPEC6
File this flight plan on PilotEdge
Remarks:
Altitude:
(Current/Filed)
29,000ft
Speed:
(Current/Filed)
452kts
Departed: 23-May-20 01:58 PM
Arrived: 23-May-20 02:44 PM
Distance/Time
Traveled:
197nm/0:46
Distance/Time
To Go:
Arrived

Flight Plot

Page will automatically refresh every two minutes.


Map Options




Map Legend


Flown Route
Filed Route
Departure Airport
Arrival Airport
Navaid (VOR, NDB)
Fix

Horizontal Profiles

Position Reports

Time Latitude Longitude Heading Altitude Ground
Speed
23-May-20 13:32 33.677160 -117.863710 116 70ft 0kts
23-May-20 13:34 33.677160 -117.863710 116 70ft 0kts
23-May-20 13:35 33.677160 -117.863710 116 70ft 0kts
23-May-20 13:35 33.677160 -117.863710 116 70ft 0kts
23-May-20 13:36 33.677160 -117.863710 116 70ft 0kts
23-May-20 13:38 33.677160 -117.863710 116 70ft 0kts
23-May-20 13:38 33.677160 -117.863710 116 70ft 0kts
23-May-20 13:39 33.677160 -117.863710 116 70ft 0kts
23-May-20 13:40 33.677160 -117.863710 116 70ft 0kts
23-May-20 13:41 33.677160 -117.863710 116 70ft 0kts
23-May-20 13:42 33.677160 -117.863710 116 70ft 0kts
23-May-20 13:43 33.677160 -117.863710 116 70ft 0kts
23-May-20 13:44 33.677160 -117.863710 116 70ft 0kts
23-May-20 13:45 33.677160 -117.863710 116 70ft 0kts
23-May-20 13:46 33.677160 -117.863710 116 70ft 0kts
23-May-20 13:47 33.677160 -117.863710 116 70ft 0kts
23-May-20 13:48 33.677168 -117.863728 116 70ft 1kts
23-May-20 13:49 33.677257 -117.864498 28 70ft 1kts
23-May-20 13:50 33.677257 -117.864498 28 70ft 0kts
23-May-20 13:51 33.677258 -117.864498 28 70ft 0kts
23-May-20 13:52 33.678060 -117.863989 27 70ft 8kts
23-May-20 13:53 33.680858 -117.862216 27 70ft 0kts
23-May-20 13:54 33.680589 -117.863016 297 70ft 0kts
23-May-20 13:55 33.680907 -117.863733 298 70ft 10kts
23-May-20 13:56 33.681096 -117.865452 207 70ft 15kts
23-May-20 13:57 33.649632 -117.885247 206 1850ft 163kts
23-May-20 13:58 33.597497 -117.895122 183 3978ft 224kts
23-May-20 13:59 33.537619 -117.936919 227 6755ft 279kts
23-May-20 14:00 33.495782 -118.013840 278 8149ft 288kts
23-May-20 14:01 33.546656 -118.085964 315 10687ft 297kts
23-May-20 14:02 33.626528 -118.111009 21 13281ft 346kts
23-May-20 14:03 33.714060 -118.056409 21 16243ft 359kts
23-May-20 14:04 33.805672 -118.003809 20 18873ft 372kts
23-May-20 14:05 33.900596 -117.947927 22 21141ft 388kts
23-May-20 14:06 33.992492 -117.866056 33 22208ft 435kts
23-May-20 14:07 34.090409 -117.774743 38 23748ft 455kts
23-May-20 14:08 34.172305 -117.653923 47 25254ft 472kts
23-May-20 14:09 34.256357 -117.529878 46 26598ft 482kts
23-May-20 14:10 34.340348 -117.403855 46 28321ft 481kts
23-May-20 14:11 34.424182 -117.278514 46 28996ft 474kts
23-May-20 14:12 34.507024 -117.153994 46 29018ft 475kts
23-May-20 14:13 34.590886 -117.030080 45 29065ft 474kts
23-May-20 14:14 34.675177 -116.907207 45 29042ft 474kts
23-May-20 14:15 34.759389 -116.783909 45 29002ft 474kts
23-May-20 14:16 34.843984 -116.659874 44 28967ft 480kts
23-May-20 14:17 34.945705 -116.555967 32 28977ft 477kts
23-May-20 14:18 35.048708 -116.455856 33 28524ft 464kts
23-May-20 14:19 35.144508 -116.352347 41 26938ft 458kts
23-May-20 14:20 35.231505 -116.241626 41 24388ft 445kts
23-May-20 14:21 35.316878 -116.134758 42 21910ft 433kts
23-May-20 14:22 35.399591 -116.030401 42 19626ft 421kts
23-May-20 14:23 35.479959 -115.928645 42 17469ft 411kts
23-May-20 14:24 35.557401 -115.830325 43 15461ft 388kts
23-May-20 14:25 35.630699 -115.737087 43 13412ft 372kts
23-May-20 14:26 35.697773 -115.651470 43 12963ft 319kts
23-May-20 14:27 35.760582 -115.577994 21 12964ft 307kts
23-May-20 14:28 35.844007 -115.570605 358 12985ft 301kts
23-May-20 14:29 35.928001 -115.565954 0 13008ft 301kts
23-May-20 14:30 35.991442 -115.509243 69 12438ft 314kts
23-May-20 14:31 36.019297 -115.411139 66 11328ft 292kts
23-May-20 14:32 36.027351 -115.316575 96 10164ft 281kts
23-May-20 14:33 36.020167 -115.223128 93 9145ft 260kts
23-May-20 14:34 36.014201 -115.137641 93 8366ft 248kts
23-May-20 14:35 36.008359 -115.057341 91 7181ft 227kts
23-May-20 14:36 36.003838 -114.980803 91 5682ft 217kts
23-May-20 14:37 36.011436 -114.910472 39 4895ft 210kts
23-May-20 14:38 36.058308 -114.927750 310 4907ft 191kts
23-May-20 14:39 36.073774 -114.985177 272 4447ft 176kts
23-May-20 14:40 36.073736 -115.042319 273 3528ft 141kts
23-May-20 14:41 36.073669 -115.090293 267 2814ft 139kts
23-May-20 14:42 36.073669 -115.137763 269 2195ft 108kts
23-May-20 14:43 36.074766 -115.150593 303 2195ft 0kts
23-May-20 14:44 36.075422 -115.151423 333 2195ft 13kts
23-May-20 14:45 36.077939 -115.152859 335 2195ft 16kts
23-May-20 14:46 36.078767 -115.150802 92 2195ft 9kts
23-May-20 14:47 36.078534 -115.147316 94 2195ft 11kts
23-May-20 14:48 36.078273 -115.142584 89 2195ft 17kts
23-May-20 14:49 36.078293 -115.135249 92 2195ft 22kts
23-May-20 14:50 36.079318 -115.133742 359 2195ft 4kts
23-May-20 14:51 36.082389 -115.134243 291 2195ft 4kts
23-May-20 14:52 36.082561 -115.134757 292 2195ft 0kts
23-May-20 14:53 36.082561 -115.134757 292 2195ft 0kts

Navigation Log

Ident Type
Flight plan parsing failed, navigation log unavailable